sensor_id;sensor_type;location;lat;lon;timestamp;temperature;humidity
35085;SHT85;21267;51.032;6.998;2023-01-10T00:01:53;6.96;88.38
35085;SHT85;21267;51.032;6.998;2023-01-10T00:04:23;6.94;88.41
35085;SHT85;21267;51.032;6.998;2023-01-10T00:06:52;7.03;87.99
35085;SHT85;21267;51.032;6.998;2023-01-10T00:09:18;7.01;88.07
35085;SHT85;21267;51.032;6.998;2023-01-10T00:11:45;7.05;87.54
35085;SHT85;21267;51.032;6.998;2023-01-10T00:14:31;7.01;87.37
35085;SHT85;21267;51.032;6.998;2023-01-10T00:17:01;7.04;87.06
35085;SHT85;21267;51.032;6.998;2023-01-10T00:19:27;7.10;87.39
35085;SHT85;21267;51.032;6.998;2023-01-10T00:21:54;7.01;87.13
35085;SHT85;21267;51.032;6.998;2023-01-10T00:24:22;7.01;87.00
35085;SHT85;21267;51.032;6.998;2023-01-10T00:26:50;7.00;86.78
35085;SHT85;21267;51.032;6.998;2023-01-10T00:29:18;7.01;86.86
35085;SHT85;21267;51.032;6.998;2023-01-10T00:31:45;6.96;86.79
35085;SHT85;21267;51.032;6.998;2023-01-10T00:34:14;6.99;86.26
35085;SHT85;21267;51.032;6.998;2023-01-10T00:36:40;6.93;85.94
35085;SHT85;21267;51.032;6.998;2023-01-10T00:39:07;6.93;86.26
35085;SHT85;21267;51.032;6.998;2023-01-10T00:41:36;6.94;86.07
35085;SHT85;21267;51.032;6.998;2023-01-10T00:44:21;6.89;86.09
35085;SHT85;21267;51.032;6.998;2023-01-10T00:46:47;6.84;86.07
35085;SHT85;21267;51.032;6.998;2023-01-10T00:49:14;6.89;86.11
35085;SHT85;21267;51.032;6.998;2023-01-10T00:51:42;6.87;85.91
35085;SHT85;21267;51.032;6.998;2023-01-10T00:54:10;6.89;85.95
35085;SHT85;21267;51.032;6.998;2023-01-10T00:56:37;6.94;85.90
35085;SHT85;21267;51.032;6.998;2023-01-10T01:01:42;6.93;85.88
35085;SHT85;21267;51.032;6.998;2023-01-10T01:04:08;6.97;85.70
35085;SHT85;21267;51.032;6.998;2023-01-10T01:06:35;7.00;85.25
35085;SHT85;21267;51.032;6.998;2023-01-10T01:09:02;6.94;85.66
35085;SHT85;21267;51.032;6.998;2023-01-10T01:11:29;6.90;85.73
35085;SHT85;21267;51.032;6.998;2023-01-10T01:13:55;6.99;85.92
35085;SHT85;21267;51.032;6.998;2023-01-10T01:16:22;6.97;85.35
35085;SHT85;21267;51.032;6.998;2023-01-10T01:18:48;6.97;85.70
35085;SHT85;21267;51.032;6.998;2023-01-10T01:21:16;6.90;85.79
35085;SHT85;21267;51.032;6.998;2023-01-10T01:23:43;6.96;85.49
35085;SHT85;21267;51.032;6.998;2023-01-10T01:26:10;6.89;85.84
35085;SHT85;21267;51.032;6.998;2023-01-10T01:28:37;6.87;85.96
35085;SHT85;21267;51.032;6.998;2023-01-10T01:31:09;6.99;85.64
35085;SHT85;21267;51.032;6.998;2023-01-10T01:33:36;6.94;85.51
35085;SHT85;21267;51.032;6.998;2023-01-10T01:36:07;6.86;85.74
35085;SHT85;21267;51.032;6.998;2023-01-10T01:38:34;6.92;85.76
35085;SHT85;21267;51.032;6.998;2023-01-10T01:41:01;6.93;85.60
35085;SHT85;21267;51.032;6.998;2023-01-10T01:43:29;6.86;85.75
35085;SHT85;21267;51.032;6.998;2023-01-10T01:46:01;6.92;85.91
35085;SHT85;21267;51.032;6.998;2023-01-10T01:48:41;6.82;86.04
35085;SHT85;21267;51.032;6.998;2023-01-10T01:51:12;6.87;85.85
35085;SHT85;21267;51.032;6.998;2023-01-10T01:53:42;6.92;85.49
35085;SHT85;21267;51.032;6.998;2023-01-10T01:56:16;6.87;85.53
35085;SHT85;21267;51.032;6.998;2023-01-10T01:58:51;6.94;85.25
35085;SHT85;21267;51.032;6.998;2023-01-10T02:01:20;6.96;85.12
35085;SHT85;21267;51.032;6.998;2023-01-10T02:03:49;6.92;85.41
35085;SHT85;21267;51.032;6.998;2023-01-10T02:06:18;6.87;85.25
35085;SHT85;21267;51.032;6.998;2023-01-10T02:08:53;6.86;85.35
35085;SHT85;21267;51.032;6.998;2023-01-10T02:11:20;6.89;85.29
35085;SHT85;21267;51.032;6.998;2023-01-10T02:13:47;6.89;85.51
35085;SHT85;21267;51.032;6.998;2023-01-10T02:16:15;6.90;85.24
35085;SHT85;21267;51.032;6.998;2023-01-10T02:18:42;6.82;85.44
35085;SHT85;21267;51.032;6.998;2023-01-10T02:27:24;6.77;85.29
35085;SHT85;21267;51.032;6.998;2023-01-10T02:30:53;6.71;85.48
35085;SHT85;21267;51.032;6.998;2023-01-10T02:41:20;6.63;85.80
35085;SHT85;21267;51.032;6.998;2023-01-10T02:44:00;6.61;85.98
35085;SHT85;21267;51.032;6.998;2023-01-10T02:46:29;6.68;85.52
35085;SHT85;21267;51.032;6.998;2023-01-10T02:48:56;6.68;85.27
35085;SHT85;21267;51.032;6.998;2023-01-10T02:51:26;6.72;85.38
35085;SHT85;21267;51.032;6.998;2023-01-10T02:53:58;6.73;85.18
35085;SHT85;21267;51.032;6.998;2023-01-10T03:02:21;6.69;85.36
35085;SHT85;21267;51.032;6.998;2023-01-10T03:08:09;6.63;85.26
35085;SHT85;21267;51.032;6.998;2023-01-10T03:11:05;6.66;85.12
35085;SHT85;21267;51.032;6.998;2023-01-10T03:13:42;6.63;85.10
35085;SHT85;21267;51.032;6.998;2023-01-10T03:16:14;6.56;85.02
35085;SHT85;21267;51.032;6.998;2023-01-10T03:18:58;6.62;85.31
35085;SHT85;21267;51.032;6.998;2023-01-10T03:21:27;6.62;85.17
35085;SHT85;21267;51.032;6.998;2023-01-10T03:24:02;6.56;84.84
35085;SHT85;21267;51.032;6.998;2023-01-10T03:26:39;6.52;85.00
35085;SHT85;21267;51.032;6.998;2023-01-10T03:29:08;6.49;84.81
35085;SHT85;21267;51.032;6.998;2023-01-10T03:31:41;6.52;84.57
35085;SHT85;21267;51.032;6.998;2023-01-10T03:34:11;6.53;84.67
35085;SHT85;21267;51.032;6.998;2023-01-10T03:39:36;6.53;84.56
35085;SHT85;21267;51.032;6.998;2023-01-10T03:42:18;6.50;84.40
35085;SHT85;21267;51.032;6.998;2023-01-10T03:47:48;6.52;84.16
35085;SHT85;21267;51.032;6.998;2023-01-10T03:50:19;6.49;84.29
35085;SHT85;21267;51.032;6.998;2023-01-10T03:52:46;6.49;84.12
35085;SHT85;21267;51.032;6.998;2023-01-10T03:55:14;6.48;84.42
35085;SHT85;21267;51.032;6.998;2023-01-10T03:57:41;6.44;84.21
35085;SHT85;21267;51.032;6.998;2023-01-10T04:00:08;6.35;84.67
35085;SHT85;21267;51.032;6.998;2023-01-10T04:02:35;6.36;84.51
35085;SHT85;21267;51.032;6.998;2023-01-10T04:05:02;6.26;84.69
35085;SHT85;21267;51.032;6.998;2023-01-10T04:07:28;6.25;85.02
35085;SHT85;21267;51.032;6.998;2023-01-10T04:09:55;6.29;84.65
35085;SHT85;21267;51.032;6.998;2023-01-10T04:12:22;6.35;84.77
35085;SHT85;21267;51.032;6.998;2023-01-10T04:14:48;6.36;84.56
35085;SHT85;21267;51.032;6.998;2023-01-10T04:17:16;6.39;84.85
35085;SHT85;21267;51.032;6.998;2023-01-10T04:19:43;6.41;84.53
35085;SHT85;21267;51.032;6.998;2023-01-10T04:22:10;6.36;85.01
35085;SHT85;21267;51.032;6.998;2023-01-10T04:24:39;6.36;84.87
35085;SHT85;21267;51.032;6.998;2023-01-10T04:27:06;6.41;84.72
35085;SHT85;21267;51.032;6.998;2023-01-10T04:29:32;6.34;84.65
35085;SHT85;21267;51.032;6.998;2023-01-10T04:31:59;6.29;84.76
35085;SHT85;21267;51.032;6.998;2023-01-10T04:34:26;6.38;84.63
35085;SHT85;21267;51.032;6.998;2023-01-10T04:36:53;6.32;84.85
35085;SHT85;21267;51.032;6.998;2023-01-10T04:39:19;6.36;84.81
35085;SHT85;21267;51.032;6.998;2023-01-10T04:41:46;6.42;84.50
35085;SHT85;21267;51.032;6.998;2023-01-10T04:44:13;6.36;84.62
35085;SHT85;21267;51.032;6.998;2023-01-10T04:46:40;6.46;84.38
35085;SHT85;21267;51.032;6.998;2023-01-10T04:49:08;6.42;84.23
35085;SHT85;21267;51.032;6.998;2023-01-10T04:51:36;6.49;83.94
35085;SHT85;21267;51.032;6.998;2023-01-10T04:54:03;6.53;83.81
35085;SHT85;21267;51.032;6.998;2023-01-10T04:56:30;6.53;84.00
35085;SHT85;21267;51.032;6.998;2023-01-10T04:58:56;6.48;84.10
35085;SHT85;21267;51.032;6.998;2023-01-10T05:01:24;6.45;84.10
35085;SHT85;21267;51.032;6.998;2023-01-10T05:03:54;6.55;83.60
35085;SHT85;21267;51.032;6.998;2023-01-10T05:06:23;6.53;83.81
35085;SHT85;21267;51.032;6.998;2023-01-10T05:08:53;6.52;83.79
35085;SHT85;21267;51.032;6.998;2023-01-10T05:11:19;6.55;83.63
35085;SHT85;21267;51.032;6.998;2023-01-10T05:13:46;6.61;83.77
35085;SHT85;21267;51.032;6.998;2023-01-10T05:16:13;6.59;84.02
35085;SHT85;21267;51.032;6.998;2023-01-10T05:18:40;6.69;84.01
35085;SHT85;21267;51.032;6.998;2023-01-10T05:21:09;6.62;84.00
35085;SHT85;21267;51.032;6.998;2023-01-10T05:23:37;6.62;84.18
35085;SHT85;21267;51.032;6.998;2023-01-10T05:26:13;6.66;83.81
35085;SHT85;21267;51.032;6.998;2023-01-10T05:28:39;6.63;83.91
35085;SHT85;21267;51.032;6.998;2023-01-10T05:31:08;6.62;83.68
35085;SHT85;21267;51.032;6.998;2023-01-10T05:33:35;6.57;83.99
35085;SHT85;21267;51.032;6.998;2023-01-10T05:36:04;6.57;83.95
35085;SHT85;21267;51.032;6.998;2023-01-10T05:38:32;6.52;84.13
35085;SHT85;21267;51.032;6.998;2023-01-10T05:40:59;6.55;84.29
35085;SHT85;21267;51.032;6.998;2023-01-10T05:43:26;6.52;84.46
35085;SHT85;21267;51.032;6.998;2023-01-10T05:45:53;6.44;84.53
35085;SHT85;21267;51.032;6.998;2023-01-10T05:48:20;6.38;84.36
35085;SHT85;21267;51.032;6.998;2023-01-10T05:50:51;6.41;84.31
35085;SHT85;21267;51.032;6.998;2023-01-10T05:53:19;6.36;84.51
35085;SHT85;21267;51.032;6.998;2023-01-10T05:55:53;6.35;84.40
35085;SHT85;21267;51.032;6.998;2023-01-10T05:58:21;6.36;84.37
35085;SHT85;21267;51.032;6.998;2023-01-10T06:00:48;6.29;84.72
35085;SHT85;21267;51.032;6.998;2023-01-10T06:03:15;6.24;85.09
35085;SHT85;21267;51.032;6.998;2023-01-10T06:05:42;6.21;85.58
35085;SHT85;21267;51.032;6.998;2023-01-10T06:08:09;6.21;85.45
35085;SHT85;21267;51.032;6.998;2023-01-10T06:10:35;6.28;84.98
35085;SHT85;21267;51.032;6.998;2023-01-10T06:13:02;6.26;85.00
35085;SHT85;21267;51.032;6.998;2023-01-10T06:15:31;6.28;85.16
35085;SHT85;21267;51.032;6.998;2023-01-10T06:17:58;6.26;85.57
35085;SHT85;21267;51.032;6.998;2023-01-10T06:20:25;6.38;85.28
35085;SHT85;21267;51.032;6.998;2023-01-10T06:22:52;6.41;85.21
35085;SHT85;21267;51.032;6.998;2023-01-10T06:25:19;6.42;84.79
35085;SHT85;21267;51.032;6.998;2023-01-10T06:27:46;6.42;84.49
35085;SHT85;21267;51.032;6.998;2023-01-10T06:30:13;6.42;84.64
35085;SHT85;21267;51.032;6.998;2023-01-10T06:32:40;6.32;84.90
35085;SHT85;21267;51.032;6.998;2023-01-10T06:35:08;6.28;84.86
35085;SHT85;21267;51.032;6.998;2023-01-10T06:37:35;6.35;84.84
35085;SHT85;21267;51.032;6.998;2023-01-10T06:40:02;6.35;84.70
35085;SHT85;21267;51.032;6.998;2023-01-10T06:42:30;6.39;84.74
35085;SHT85;21267;51.032;6.998;2023-01-10T06:44:56;6.36;84.82
35085;SHT85;21267;51.032;6.998;2023-01-10T06:47:23;6.36;84.70
35085;SHT85;21267;51.032;6.998;2023-01-10T06:49:50;6.44;84.74
35085;SHT85;21267;51.032;6.998;2023-01-10T06:52:16;6.38;84.71
35085;SHT85;21267;51.032;6.998;2023-01-10T06:54:43;6.41;85.00
35085;SHT85;21267;51.032;6.998;2023-01-10T06:57:10;6.41;85.09
35085;SHT85;21267;51.032;6.998;2023-01-10T06:59:37;6.36;84.47
35085;SHT85;21267;51.032;6.998;2023-01-10T07:02:04;6.45;84.88
35085;SHT85;21267;51.032;6.998;2023-01-10T07:04:31;6.35;84.78
35085;SHT85;21267;51.032;6.998;2023-01-10T07:06:57;6.32;84.64
35085;SHT85;21267;51.032;6.998;2023-01-10T07:09:24;6.28;84.97
35085;SHT85;21267;51.032;6.998;2023-01-10T07:11:50;6.28;84.80
35085;SHT85;21267;51.032;6.998;2023-01-10T07:14:17;6.32;85.01
35085;SHT85;21267;51.032;6.998;2023-01-10T07:16:44;6.28;85.33
35085;SHT85;21267;51.032;6.998;2023-01-10T07:19:11;6.26;85.07
35085;SHT85;21267;51.032;6.998;2023-01-10T07:21:39;6.28;84.91
35085;SHT85;21267;51.032;6.998;2023-01-10T07:24:06;6.35;84.59
35085;SHT85;21267;51.032;6.998;2023-01-10T07:26:33;6.31;84.83
35085;SHT85;21267;51.032;6.998;2023-01-10T07:33:36;6.36;84.65
35085;SHT85;21267;51.032;6.998;2023-01-10T07:36:03;6.32;84.79
35085;SHT85;21267;51.032;6.998;2023-01-10T07:38:30;6.39;84.84
35085;SHT85;21267;51.032;6.998;2023-01-10T07:40:56;6.32;84.77
35085;SHT85;21267;51.032;6.998;2023-01-10T07:43:23;6.24;84.77
35085;SHT85;21267;51.032;6.998;2023-01-10T07:45:50;6.24;84.82
35085;SHT85;21267;51.032;6.998;2023-01-10T07:48:17;6.26;84.84
35085;SHT85;21267;51.032;6.998;2023-01-10T07:50:43;6.20;84.79
35085;SHT85;21267;51.032;6.998;2023-01-10T07:53:10;6.17;84.77
35085;SHT85;21267;51.032;6.998;2023-01-10T07:55:44;6.17;85.02
35085;SHT85;21267;51.032;6.998;2023-01-10T07:58:11;6.10;85.15
35085;SHT85;21267;51.032;6.998;2023-01-10T08:00:37;6.18;84.76
35085;SHT85;21267;51.032;6.998;2023-01-10T08:03:04;6.17;85.04
35085;SHT85;21267;51.032;6.998;2023-01-10T08:05:32;6.14;84.98
35085;SHT85;21267;51.032;6.998;2023-01-10T08:08:07;6.07;85.19
35085;SHT85;21267;51.032;6.998;2023-01-10T08:10:35;6.13;85.27
35085;SHT85;21267;51.032;6.998;2023-01-10T08:13:04;6.18;85.37
35085;SHT85;21267;51.032;6.998;2023-01-10T08:15:43;6.28;85.16
35085;SHT85;21267;51.032;6.998;2023-01-10T08:18:12;6.15;85.34
35085;SHT85;21267;51.032;6.998;2023-01-10T08:20:39;6.20;85.21
35085;SHT85;21267;51.032;6.998;2023-01-10T08:23:06;6.26;85.04
35085;SHT85;21267;51.032;6.998;2023-01-10T08:25:35;6.24;84.69
35085;SHT85;21267;51.032;6.998;2023-01-10T08:28:10;6.25;84.84
35085;SHT85;21267;51.032;6.998;2023-01-10T08:30:37;6.24;84.87
35085;SHT85;21267;51.032;6.998;2023-01-10T08:33:05;6.31;84.67
35085;SHT85;21267;51.032;6.998;2023-01-10T08:35:40;6.29;85.00
35085;SHT85;21267;51.032;6.998;2023-01-10T08:38:09;6.38;85.11
35085;SHT85;21267;51.032;6.998;2023-01-10T08:40:36;6.56;84.67
35085;SHT85;21267;51.032;6.998;2023-01-10T08:43:05;6.66;83.79
35085;SHT85;21267;51.032;6.998;2023-01-10T08:45:33;6.87;83.23
35085;SHT85;21267;51.032;6.998;2023-01-10T08:48:01;7.00;83.22
35085;SHT85;21267;51.032;6.998;2023-01-10T08:50:28;7.13;82.53
35085;SHT85;21267;51.032;6.998;2023-01-10T08:52:58;7.40;81.57
35085;SHT85;21267;51.032;6.998;2023-01-10T08:55:27;7.42;81.27
35085;SHT85;21267;51.032;6.998;2023-01-10T08:57:54;7.42;81.46
35085;SHT85;21267;51.032;6.998;2023-01-10T09:00:21;7.55;80.86
35085;SHT85;21267;51.032;6.998;2023-01-10T09:02:48;7.75;80.30
35085;SHT85;21267;51.032;6.998;2023-01-10T09:05:15;8.13;79.22
35085;SHT85;21267;51.032;6.998;2023-01-10T09:07:57;8.17;78.78
35085;SHT85;21267;51.032;6.998;2023-01-10T09:10:27;8.26;79.16
35085;SHT85;21267;51.032;6.998;2023-01-10T09:12:56;8.30;78.87
35085;SHT85;21267;51.032;6.998;2023-01-10T09:15:29;8.45;78.27
35085;SHT85;21267;51.032;6.998;2023-01-10T09:18:00;8.57;77.84
35085;SHT85;21267;51.032;6.998;2023-01-10T09:20:28;8.38;78.63
35085;SHT85;21267;51.032;6.998;2023-01-10T09:22:55;8.68;77.69
35085;SHT85;21267;51.032;6.998;2023-01-10T09:25:23;8.68;76.99
35085;SHT85;21267;51.032;6.998;2023-01-10T09:28:01;9.08;76.40
35085;SHT85;21267;51.032;6.998;2023-01-10T09:30:29;9.01;75.78
35085;SHT85;21267;51.032;6.998;2023-01-10T09:32:57;9.18;75.50
35085;SHT85;21267;51.032;6.998;2023-01-10T09:35:24;9.08;75.65
35085;SHT85;21267;51.032;6.998;2023-01-10T09:37:57;9.15;75.56
35085;SHT85;21267;51.032;6.998;2023-01-10T09:43:43;9.60;74.43
35085;SHT85;21267;51.032;6.998;2023-01-10T09:46:37;9.63;74.14
35085;SHT85;21267;51.032;6.998;2023-01-10T09:49:34;9.95;73.61
35085;SHT85;21267;51.032;6.998;2023-01-10T09:52:02;9.82;72.78
35085;SHT85;21267;51.032;6.998;2023-01-10T09:54:38;9.95;73.48
35085;SHT85;21267;51.032;6.998;2023-01-10T09:57:13;9.78;73.90
35085;SHT85;21267;51.032;6.998;2023-01-10T09:59:42;9.48;74.16
35085;SHT85;21267;51.032;6.998;2023-01-10T10:02:33;9.74;74.31
35085;SHT85;21267;51.032;6.998;2023-01-10T10:05:33;9.44;74.18
35085;SHT85;21267;51.032;6.998;2023-01-10T10:07:58;9.50;73.48
35085;SHT85;21267;51.032;6.998;2023-01-10T10:10:40;9.36;73.82
35085;SHT85;21267;51.032;6.998;2023-01-10T10:21:44;10.21;70.99
35085;SHT85;21267;51.032;6.998;2023-01-10T10:26:58;9.90;72.42
35085;SHT85;21267;51.032;6.998;2023-01-10T10:29:52;9.71;73.12
35085;SHT85;21267;51.032;6.998;2023-01-10T10:32:33;9.55;72.98
35085;SHT85;21267;51.032;6.998;2023-01-10T10:37:35;10.26;71.81
35085;SHT85;21267;51.032;6.998;2023-01-10T10:40:14;9.65;72.95
35085;SHT85;21267;51.032;6.998;2023-01-10T10:42:42;9.82;72.06
35085;SHT85;21267;51.032;6.998;2023-01-10T10:45:34;9.69;72.64
35085;SHT85;21267;51.032;6.998;2023-01-10T10:48:33;9.77;72.55
35085;SHT85;21267;51.032;6.998;2023-01-10T10:53:46;10.05;72.29
35085;SHT85;21267;51.032;6.998;2023-01-10T10:56:18;10.42;71.34
35085;SHT85;21267;51.032;6.998;2023-01-10T10:58:49;10.26;71.32
35085;SHT85;21267;51.032;6.998;2023-01-10T11:01:23;10.25;71.71
35085;SHT85;21267;51.032;6.998;2023-01-10T11:03:58;10.12;71.11
35085;SHT85;21267;51.032;6.998;2023-01-10T11:06:29;10.28;71.20
35085;SHT85;21267;51.032;6.998;2023-01-10T11:09:01;9.84;72.03
35085;SHT85;21267;51.032;6.998;2023-01-10T11:11:38;9.69;72.73
35085;SHT85;21267;51.032;6.998;2023-01-10T11:14:07;9.78;72.62
35085;SHT85;21267;51.032;6.998;2023-01-10T11:16:39;9.60;72.86
35085;SHT85;21267;51.032;6.998;2023-01-10T11:21:37;9.30;73.52
35085;SHT85;21267;51.032;6.998;2023-01-10T11:24:26;9.18;73.81
35085;SHT85;21267;51.032;6.998;2023-01-10T11:26:55;9.15;74.39
35085;SHT85;21267;51.032;6.998;2023-01-10T11:31:55;9.15;74.71
35085;SHT85;21267;51.032;6.998;2023-01-10T11:34:25;9.09;74.26
35085;SHT85;21267;51.032;6.998;2023-01-10T11:37:04;9.15;74.48
35085;SHT85;21267;51.032;6.998;2023-01-10T11:39:34;9.20;74.23
35085;SHT85;21267;51.032;6.998;2023-01-10T11:44:50;9.22;72.51
35085;SHT85;21267;51.032;6.998;2023-01-10T11:47:16;9.24;72.74
35085;SHT85;21267;51.032;6.998;2023-01-10T11:49:47;9.32;72.28
35085;SHT85;21267;51.032;6.998;2023-01-10T11:52:24;9.22;72.02
35085;SHT85;21267;51.032;6.998;2023-01-10T11:54:53;9.27;71.83
35085;SHT85;21267;51.032;6.998;2023-01-10T11:57:26;9.40;71.72
35085;SHT85;21267;51.032;6.998;2023-01-10T12:00:03;9.36;71.79
35085;SHT85;21267;51.032;6.998;2023-01-10T12:05:05;9.44;70.89
35085;SHT85;21267;51.032;6.998;2023-01-10T12:10:20;9.54;70.49
35085;SHT85;21267;51.032;6.998;2023-01-10T12:12:59;9.44;70.61
35085;SHT85;21267;51.032;6.998;2023-01-10T12:15:32;9.54;70.61
35085;SHT85;21267;51.032;6.998;2023-01-10T12:18:03;9.50;70.49
35085;SHT85;21267;51.032;6.998;2023-01-10T12:20:43;9.40;71.01
35085;SHT85;21267;51.032;6.998;2023-01-10T12:23:18;9.20;71.38
35085;SHT85;21267;51.032;6.998;2023-01-10T12:25:46;9.20;71.45
35085;SHT85;21267;51.032;6.998;2023-01-10T12:28:21;9.05;71.89
35085;SHT85;21267;51.032;6.998;2023-01-10T12:30:49;9.08;71.97
35085;SHT85;21267;51.032;6.998;2023-01-10T12:33:31;9.05;71.97
35085;SHT85;21267;51.032;6.998;2023-01-10T12:36:12;9.12;72.04
35085;SHT85;21267;51.032;6.998;2023-01-10T12:38:48;8.98;71.77
35085;SHT85;21267;51.032;6.998;2023-01-10T12:41:35;9.18;71.91
35085;SHT85;21267;51.032;6.998;2023-01-10T12:44:29;9.08;71.83
35085;SHT85;21267;51.032;6.998;2023-01-10T12:52:58;9.02;72.30
35085;SHT85;21267;51.032;6.998;2023-01-10T12:55:32;8.98;72.75
35085;SHT85;21267;51.032;6.998;2023-01-10T12:58:02;8.81;73.01
35085;SHT85;21267;51.032;6.998;2023-01-10T13:00:36;8.79;73.14
35085;SHT85;21267;51.032;6.998;2023-01-10T13:03:21;8.74;73.15
35085;SHT85;21267;51.032;6.998;2023-01-10T13:05:49;8.69;73.24
35085;SHT85;21267;51.032;6.998;2023-01-10T13:08:20;8.71;73.21
35085;SHT85;21267;51.032;6.998;2023-01-10T13:10:53;8.71;73.34
35085;SHT85;21267;51.032;6.998;2023-01-10T13:16:29;8.72;72.98
35085;SHT85;21267;51.032;6.998;2023-01-10T13:19:02;8.72;73.08
35085;SHT85;21267;51.032;6.998;2023-01-10T13:21:31;8.72;73.17
35085;SHT85;21267;51.032;6.998;2023-01-10T13:24:21;8.74;73.01
35085;SHT85;21267;51.032;6.998;2023-01-10T13:26:52;8.74;72.42
35085;SHT85;21267;51.032;6.998;2023-01-10T13:29:22;8.69;71.96
35085;SHT85;21267;51.032;6.998;2023-01-10T13:31:51;8.75;72.16
35085;SHT85;21267;51.032;6.998;2023-01-10T13:34:25;8.72;72.51
35085;SHT85;21267;51.032;6.998;2023-01-10T13:36:59;8.65;73.07
35085;SHT85;21267;51.032;6.998;2023-01-10T13:39:34;8.58;73.07
35085;SHT85;21267;51.032;6.998;2023-01-10T14:00:51;8.44;74.21
35085;SHT85;21267;51.032;6.998;2023-01-10T14:06:32;8.40;73.71
35085;SHT85;21267;51.032;6.998;2023-01-10T14:14:36;8.27;74.61
35085;SHT85;21267;51.032;6.998;2023-01-10T14:17:23;8.27;74.08
35085;SHT85;21267;51.032;6.998;2023-01-10T14:22:36;8.23;73.89
35085;SHT85;21267;51.032;6.998;2023-01-10T14:25:06;8.24;74.07
35085;SHT85;21267;51.032;6.998;2023-01-10T14:27:49;8.16;73.97
35085;SHT85;21267;51.032;6.998;2023-01-10T14:30:28;8.16;74.31
35085;SHT85;21267;51.032;6.998;2023-01-10T14:33:02;8.13;74.42
35085;SHT85;21267;51.032;6.998;2023-01-10T14:35:37;8.19;73.71
35085;SHT85;21267;51.032;6.998;2023-01-10T14:38:18;8.14;73.70
35085;SHT85;21267;51.032;6.998;2023-01-10T14:40:55;8.12;74.15
35085;SHT85;21267;51.032;6.998;2023-01-10T14:43:25;8.10;74.47
35085;SHT85;21267;51.032;6.998;2023-01-10T14:46:05;8.04;74.95
35085;SHT85;21267;51.032;6.998;2023-01-10T14:48:39;7.97;75.15
35085;SHT85;21267;51.032;6.998;2023-01-10T14:51:28;7.94;75.39
35085;SHT85;21267;51.032;6.998;2023-01-10T14:53:58;7.89;75.65
35085;SHT85;21267;51.032;6.998;2023-01-10T14:56:29;7.87;75.65
35085;SHT85;21267;51.032;6.998;2023-01-10T15:01:57;7.86;75.86
35085;SHT85;21267;51.032;6.998;2023-01-10T15:04:30;7.85;75.63
35085;SHT85;21267;51.032;6.998;2023-01-10T15:07:01;7.99;76.01
35085;SHT85;21267;51.032;6.998;2023-01-10T15:09:30;7.86;75.82
35085;SHT85;21267;51.032;6.998;2023-01-10T15:11:59;7.82;76.21
35085;SHT85;21267;51.032;6.998;2023-01-10T15:14:28;7.83;76.09
35085;SHT85;21267;51.032;6.998;2023-01-10T15:16:58;7.81;75.90
35085;SHT85;21267;51.032;6.998;2023-01-10T15:19:32;7.79;76.09
35085;SHT85;21267;51.032;6.998;2023-01-10T15:22:00;7.78;76.24
35085;SHT85;21267;51.032;6.998;2023-01-10T15:24:34;7.73;76.75
35085;SHT85;21267;51.032;6.998;2023-01-10T15:27:13;7.73;76.72
35085;SHT85;21267;51.032;6.998;2023-01-10T15:29:41;7.76;76.83
35085;SHT85;21267;51.032;6.998;2023-01-10T15:34:50;7.68;76.90
35085;SHT85;21267;51.032;6.998;2023-01-10T15:37:23;7.66;77.04
35085;SHT85;21267;51.032;6.998;2023-01-10T15:39:52;7.69;77.37
35085;SHT85;21267;51.032;6.998;2023-01-10T15:42:20;7.72;77.38
35085;SHT85;21267;51.032;6.998;2023-01-10T15:44:49;7.66;77.63
35085;SHT85;21267;51.032;6.998;2023-01-10T15:50:36;7.50;79.48
35085;SHT85;21267;51.032;6.998;2023-01-10T15:53:08;7.36;80.32
35085;SHT85;21267;51.032;6.998;2023-01-10T15:55:52;7.30;80.69
35085;SHT85;21267;51.032;6.998;2023-01-10T15:58:28;7.21;81.70
35085;SHT85;21267;51.032;6.998;2023-01-10T16:00:56;7.15;82.15
35085;SHT85;21267;51.032;6.998;2023-01-10T16:03:42;7.08;82.72
35085;SHT85;21267;51.032;6.998;2023-01-10T16:06:32;7.08;83.08
35085;SHT85;21267;51.032;6.998;2023-01-10T16:09:01;7.11;82.83
35085;SHT85;21267;51.032;6.998;2023-01-10T16:11:37;7.00;83.65
35085;SHT85;21267;51.032;6.998;2023-01-10T16:14:25;6.90;84.89
35085;SHT85;21267;51.032;6.998;2023-01-10T16:16:51;6.83;85.56
35085;SHT85;21267;51.032;6.998;2023-01-10T16:19:18;6.72;86.37
35085;SHT85;21267;51.032;6.998;2023-01-10T16:21:49;6.65;87.70
35085;SHT85;21267;51.032;6.998;2023-01-10T16:24:22;6.61;87.70
35085;SHT85;21267;51.032;6.998;2023-01-10T16:26:50;6.57;88.56
35085;SHT85;21267;51.032;6.998;2023-01-10T16:29:18;6.57;88.71
35085;SHT85;21267;51.032;6.998;2023-01-10T16:31:48;6.52;88.86
35085;SHT85;21267;51.032;6.998;2023-01-10T16:34:31;6.45;89.46
35085;SHT85;21267;51.032;6.998;2023-01-10T16:36:59;6.45;90.17
35085;SHT85;21267;51.032;6.998;2023-01-10T16:39:39;6.45;89.80
35085;SHT85;21267;51.032;6.998;2023-01-10T16:42:07;6.38;90.53
35085;SHT85;21267;51.032;6.998;2023-01-10T16:44:54;6.41;90.41
35085;SHT85;21267;51.032;6.998;2023-01-10T16:47:21;6.38;90.57
35085;SHT85;21267;51.032;6.998;2023-01-10T16:50:01;6.38;90.97
35085;SHT85;21267;51.032;6.998;2023-01-10T16:52:28;6.36;91.39
35085;SHT85;21267;51.032;6.998;2023-01-10T16:54:54;6.38;91.41
35085;SHT85;21267;51.032;6.998;2023-01-10T16:57:35;6.32;90.93
35085;SHT85;21267;51.032;6.998;2023-01-10T17:00:02;6.29;91.59
35085;SHT85;21267;51.032;6.998;2023-01-10T17:02:37;6.21;92.22
35085;SHT85;21267;51.032;6.998;2023-01-10T17:05:04;6.25;92.36
35085;SHT85;21267;51.032;6.998;2023-01-10T17:07:31;6.15;92.88
35085;SHT85;21267;51.032;6.998;2023-01-10T17:09:58;6.17;93.65
35085;SHT85;21267;51.032;6.998;2023-01-10T17:12:30;6.17;93.79
35085;SHT85;21267;51.032;6.998;2023-01-10T17:14:57;6.18;93.54
35085;SHT85;21267;51.032;6.998;2023-01-10T17:17:24;6.21;93.26
35085;SHT85;21267;51.032;6.998;2023-01-10T17:19:52;6.17;93.58
35085;SHT85;21267;51.032;6.998;2023-01-10T17:22:18;6.14;94.02
35085;SHT85;21267;51.032;6.998;2023-01-10T17:24:45;6.14;94.15
35085;SHT85;21267;51.032;6.998;2023-01-10T17:27:12;6.17;94.14
35085;SHT85;21267;51.032;6.998;2023-01-10T17:29:38;6.14;94.29
35085;SHT85;21267;51.032;6.998;2023-01-10T17:32:05;6.13;94.47
35085;SHT85;21267;51.032;6.998;2023-01-10T17:34:33;6.13;94.34
35085;SHT85;21267;51.032;6.998;2023-01-10T17:37:16;6.11;94.79
35085;SHT85;21267;51.032;6.998;2023-01-10T17:39:43;6.07;94.93
35085;SHT85;21267;51.032;6.998;2023-01-10T17:42:24;6.10;94.86
35085;SHT85;21267;51.032;6.998;2023-01-10T17:44:52;6.04;95.08
35085;SHT85;21267;51.032;6.998;2023-01-10T17:47:33;6.04;95.16
35085;SHT85;21267;51.032;6.998;2023-01-10T17:50:00;6.03;95.42
35085;SHT85;21267;51.032;6.998;2023-01-10T17:52:26;5.97;95.55
35085;SHT85;21267;51.032;6.998;2023-01-10T17:55:07;5.95;95.67
35085;SHT85;21267;51.032;6.998;2023-01-10T17:57:34;5.95;95.75
35085;SHT85;21267;51.032;6.998;2023-01-10T18:00:04;5.95;95.79
35085;SHT85;21267;51.032;6.998;2023-01-10T18:02:31;5.94;95.92
35085;SHT85;21267;51.032;6.998;2023-01-10T18:04:57;5.95;95.94
35085;SHT85;21267;51.032;6.998;2023-01-10T18:07:24;5.93;96.06